Time,TemperatureF,DewpointF,PressureIn,WindDirection,WindDirectionDegrees,WindSpeedMPH,WindSpeedGustMPH,Humidity,HourlyPrecipIn,Conditions,Clouds,dailyrainin,SoftwareType,DateUTC
2013-11-01 00:01:00,61.2,60.9,29.83,ESE,103,0.0,5.4,99,0.04,,-RA,0.00,VWS V14.01,2013-11-01 04:01:00,
2013-11-01 00:06:00,61.5,61.4,29.83,ESE,103,0.0,0.0,100,0.04,,-RA,0.00,VWS V14.01,2013-11-01 04:06:00,
2013-11-01 00:11:00,61.3,61.3,29.83,NE,51,0.0,0.0,100,0.04,,-RA,0.00,VWS V14.01,2013-11-01 04:11:00,
2013-11-01 00:16:00,61.5,61.4,29.83,ENE,57,0.0,0.0,100,0.04,,-RA,0.00,VWS V14.01,2013-11-01 04:16:00,
2013-11-01 00:21:00,61.7,61.6,29.83,East,90,4.5,5.4,100,0.00,,-RA,0.00,VWS V14.01,2013-11-01 04:21:00,
2013-11-01 00:26:00,61.7,61.6,29.83,ENE,60,0.0,0.0,100,0.00,,-RA,0.00,VWS V14.01,2013-11-01 04:26:00,
2013-11-01 00:31:00,61.5,61.4,29.83,East,84,0.0,0.0,100,0.00,,-RA,0.00,VWS V14.01,2013-11-01 04:31:00,
2013-11-01 00:36:00,61.5,61.5,29.83,ESE,113,5.4,7.2,100,0.00,,-RA,0.00,VWS V14.01,2013-11-01 04:36:00,
2013-11-01 00:41:00,61.3,61.3,29.83,East,79,8.1,8.1,100,0.00,,-RA,0.00,VWS V14.01,2013-11-01 04:41:00,
2013-11-01 00:46:00,61.2,61.2,29.83,East,79,0.0,0.0,100,0.00,,-RA,0.00,VWS V14.01,2013-11-01 04:46:00,
2013-11-01 00:51:00,61.2,61.2,29.83,ENE,73,0.0,8.1,100,0.00,,-RA,0.00,VWS V14.01,2013-11-01 04:51:00,
2013-11-01 00:56:00,61.0,61.0,29.83,ENE,73,0.0,0.0,100,0.00,,-RA,0.00,VWS V14.01,2013-11-01 04:56:00,
2013-11-01 01:01:00,61.0,61.0,29.83,ENE,73,0.0,0.0,100,0.00,,-RA,0.00,VWS V14.01,2013-11-01 05:01:00,
2013-11-01 01:06:00,61.0,61.0,29.83,ENE,73,0.0,0.0,100,0.00,,-RA,0.00,VWS V14.01,2013-11-01 05:06:00,
2013-11-01 01:11:00,60.8,60.8,29.83,SE,140,0.0,0.0,100,0.00,,-RA,0.00,VWS V14.01,2013-11-01 05:11:00,
2013-11-01 01:16:00,60.8,60.8,29.80,ESE,120,0.0,7.2,100,0.00,,-RA,0.00,VWS V14.01,2013-11-01 05:16:00,
2013-11-01 01:21:00,61.0,61.0,29.80,ESE,120,0.0,0.0,100,0.00,,-RA,0.00,VWS V14.01,2013-11-01 05:21:00,
2013-11-01 01:26:00,61.0,61.0,29.80,ESE,120,0.0,0.0,100,0.00,,-RA,0.00,VWS V14.01,2013-11-01 05:26:00,
2013-11-01 01:31:00,61.0,61.0,29.80,ESE,120,0.0,0.0,100,0.00,,-RA,0.00,VWS V14.01,2013-11-01 05:31:00,
2013-11-01 01:36:00,60.8,60.8,29.80,ESE,120,0.0,0.0,100,0.00,,-RA,0.00,VWS V14.01,2013-11-01 05:36:00,
2013-11-01 01:41:00,60.8,60.8,29.80,ESE,120,0.0,0.0,100,0.00,,-RA,0.00,VWS V14.01,2013-11-01 05:41:00,
2013-11-01 01:45:00,60.8,60.8,29.80,ESE,120,0.0,0.0,100,0.00,,-RA,0.00,VWS V14.01,2013-11-01 05:45:00,
2013-11-01 01:50:00,60.8,60.8,29.80,ENE,72,0.0,7.2,100,0.00,,-RA,0.00,VWS V14.01,2013-11-01 05:50:00,
2013-11-01 01:55:00,61.0,61.0,29.80,ESE,104,0.0,5.4,100,0.00,,-RA,0.00,VWS V14.01,2013-11-01 05:55:00,
2013-11-01 02:00:00,61.0,61.0,29.80,ESE,104,0.0,5.4,100,0.00,,-RA,0.00,VWS V14.01,2013-11-01 06:00:00,
2013-11-01 02:05:00,61.0,61.0,29.77,ESE,104,0.0,8.1,100,0.00,,RA,0.00,VWS V14.01,2013-11-01 06:05:00,
2013-11-01 02:10:00,61.0,61.0,29.77,South,172,0.0,11.6,100,0.00,,RA,0.00,VWS V14.01,2013-11-01 06:10:00,
2013-11-01 02:15:00,61.3,61.3,29.77,East,96,0.0,7.2,100,0.00,,RA,0.00,VWS V14.01,2013-11-01 06:15:00,
2013-11-01 02:20:00,61.5,61.5,29.77,East,96,0.0,7.2,100,0.00,,RA,0.00,VWS V14.01,2013-11-01 06:20:00,
2013-11-01 02:25:00,61.7,61.7,29.77,East,92,0.0,7.2,100,0.00,,RA,0.00,VWS V14.01,2013-11-01 06:25:00,
2013-11-01 02:30:00,61.7,61.7,29.77,East,92,0.0,0.0,100,0.00,,RA,0.00,VWS V14.01,2013-11-01 06:30:00,
2013-11-01 02:35:00,61.9,61.9,29.77,NE,45,0.0,5.4,100,0.00,,RA,0.00,VWS V14.01,2013-11-01 06:35:00,
2013-11-01 02:40:00,61.7,61.7,29.77,ENE,73,0.0,4.5,100,0.00,,RA,0.00,VWS V14.01,2013-11-01 06:40:00,
2013-11-01 02:45:00,61.7,61.7,29.77,East,89,0.0,8.1,100,0.00,,RA,0.00,VWS V14.01,2013-11-01 06:45:00,
2013-11-01 02:50:00,61.7,61.7,29.77,East,99,0.0,6.3,100,0.00,,RA,0.00,VWS V14.01,2013-11-01 06:50:00,
2013-11-01 02:55:00,61.7,61.7,29.77,NE,49,6.3,11.6,100,0.00,,RA,0.00,VWS V14.01,2013-11-01 06:55:00,
2013-11-01 03:00:00,61.7,61.7,29.74,NE,49,0.0,6.3,100,0.00,,RA,0.00,VWS V14.01,2013-11-01 07:00:00,
2013-11-01 03:05:00,61.7,61.7,29.74,NE,52,0.0,0.0,100,0.00,,OVC039,0.00,VWS V14.01,2013-11-01 07:05:00,
2013-11-01 03:10:00,61.7,61.7,29.74,NE,52,0.0,0.0,100,0.00,,OVC039,0.00,VWS V14.01,2013-11-01 07:10:00,
2013-11-01 03:15:00,61.5,61.5,29.74,NE,52,0.0,0.0,100,0.00,,OVC039,0.00,VWS V14.01,2013-11-01 07:15:00,
2013-11-01 03:20:00,61.5,61.5,29.74,East,83,0.0,0.0,100,0.00,,OVC039,0.00,VWS V14.01,2013-11-01 07:20:00,
2013-11-01 03:25:00,61.3,61.3,29.74,ESE,104,0.0,6.3,100,0.00,,OVC039,0.00,VWS V14.01,2013-11-01 07:25:00,
2013-11-01 03:30:00,61.5,61.5,29.74,ESE,103,0.0,6.3,100,0.00,,OVC039,0.00,VWS V14.01,2013-11-01 07:30:00,
2013-11-01 03:35:00,61.7,61.7,29.74,ENE,61,0.0,7.2,100,0.00,,OVC039,0.00,VWS V14.01,2013-11-01 07:35:00,
2013-11-01 03:40:00,61.5,61.5,29.74,ENE,61,0.0,0.0,100,0.00,,OVC039,0.00,VWS V14.01,2013-11-01 07:40:00,
2013-11-01 03:45:00,61.3,61.3,29.71,ENE,61,0.0,5.4,100,0.00,,OVC039,0.00,VWS V14.01,2013-11-01 07:45:00,
2013-11-01 03:50:00,61.3,61.3,29.71,ENE,61,0.0,0.0,100,0.00,,OVC039,0.00,VWS V14.01,2013-11-01 07:50:00,
2013-11-01 03:55:00,61.3,61.3,29.71,ENE,61,0.0,0.0,100,0.00,,OVC039,0.00,VWS V14.01,2013-11-01 07:55:00,
2013-11-01 04:00:00,61.7,61.7,29.74,ENE,65,0.0,6.3,100,0.00,,OVC039,0.00,VWS V14.01,2013-11-01 08:00:00,
2013-11-01 04:05:00,61.7,61.7,29.74,ESE,104,0.0,8.1,100,0.00,,-RA,0.00,VWS V14.01,2013-11-01 08:05:00,
2013-11-01 04:10:00,61.7,61.7,29.74,ESE,104,7.2,7.2,100,0.00,,-RA,0.00,VWS V14.01,2013-11-01 08:10:00,
2013-11-01 04:15:00,61.5,61.5,29.74,ESE,109,0.0,7.2,100,0.00,,-RA,0.00,VWS V14.01,2013-11-01 08:15:00,
2013-11-01 04:20:00,61.5,61.5,29.71,East,98,5.4,7.2,100,0.00,,-RA,0.00,VWS V14.01,2013-11-01 08:20:00,
2013-11-01 04:25:00,61.7,61.7,29.71,East,100,0.0,6.3,100,0.00,,-RA,0.00,VWS V14.01,2013-11-01 08:25:00,
2013-11-01 04:30:00,61.7,61.7,29.71,ENE,68,0.0,12.5,100,0.00,,-RA,0.00,VWS V14.01,2013-11-01 08:30:00,
2013-11-01 04:35:00,61.7,61.7,29.71,ENE,68,0.0,0.0,100,0.00,,-RA,0.00,VWS V14.01,2013-11-01 08:35:00,
2013-11-01 04:40:00,61.7,61.7,29.71,East,100,0.0,8.9,100,0.00,,-RA,0.00,VWS V14.01,2013-11-01 08:40:00,
2013-11-01 04:44:00,61.7,61.7,29.71,East,83,0.0,10.7,100,0.00,,-RA,0.00,VWS V14.01,2013-11-01 08:44:00,
2013-11-01 04:49:00,61.5,61.5,29.71,East,81,0.0,0.0,100,0.00,,-RA,0.00,VWS V14.01,2013-11-01 08:49:00,
2013-11-01 04:54:00,61.3,61.3,29.71,East,81,0.0,0.0,100,0.00,,-RA,0.00,VWS V14.01,2013-11-01 08:54:00,
2013-11-01 04:59:00,61.3,61.3,29.71,East,81,0.0,5.4,100,0.00,,-RA,0.00,VWS V14.01,2013-11-01 08:59:00,
2013-11-01 05:04:00,61.3,61.3,29.68,WSW,240,0.0,8.9,100,0.00,,-RA,0.00,VWS V14.01,2013-11-01 09:04:00,
2013-11-01 05:09:00,61.3,61.3,29.68,WSW,239,0.0,8.9,100,0.00,,-RA,0.00,VWS V14.01,2013-11-01 09:09:00,
2013-11-01 05:14:00,61.5,61.5,29.68,East,90,0.0,7.2,100,0.00,,-RA,0.00,VWS V14.01,2013-11-01 09:14:00,
2013-11-01 05:19:00,61.7,61.7,29.68,East,101,7.2,7.2,100,0.00,,-RA,0.00,VWS V14.01,2013-11-01 09:19:00,
2013-11-01 05:24:00,61.7,61.7,29.68,ENE,58,0.0,8.1,100,0.00,,-RA,0.00,VWS V14.01,2013-11-01 09:24:00,
2013-11-01 05:29:00,61.9,61.9,29.68,ESE,112,0.0,8.1,100,0.00,,-RA,0.00,VWS V14.01,2013-11-01 09:29:00,
2013-11-01 05:34:00,62.2,62.0,29.68,SSE,161,0.0,12.5,99,0.00,,-RA,0.00,VWS V14.01,2013-11-01 09:34:00,
2013-11-01 05:39:00,62.4,61.8,29.68,NNE,27,0.0,8.1,98,0.00,,-RA,0.00,VWS V14.01,2013-11-01 09:39:00,
2013-11-01 05:44:00,62.4,61.2,29.68,ENE,61,4.5,8.1,96,0.00,,-RA,0.00,VWS V14.01,2013-11-01 09:44:00,
2013-11-01 05:49:00,62.6,60.3,29.68,WSW,257,8.1,10.7,92,0.00,,-RA,0.00,VWS V14.01,2013-11-01 09:49:00,
2013-11-01 05:54:00,62.8,60.1,29.68,ENE,61,0.0,11.6,91,0.00,,-RA,0.00,VWS V14.01,2013-11-01 09:54:00,
2013-11-01 05:59:00,63.0,59.8,29.68,SSE,159,5.4,10.7,90,0.00,,-RA,0.00,VWS V14.01,2013-11-01 09:59:00,
2013-11-01 06:04:00,63.1,59.6,29.68,ENE,74,0.0,12.5,88,0.00,,-RA,0.00,VWS V14.01,2013-11-01 10:04:00,
2013-11-01 06:09:00,63.5,60.0,29.68,ENE,61,0.0,8.1,88,0.00,,-RA,0.00,VWS V14.01,2013-11-01 10:09:00,
2013-11-01 06:14:00,63.7,59.7,29.68,NE,48,0.0,6.3,87,0.00,,-RA,0.00,VWS V14.01,2013-11-01 10:14:00,
2013-11-01 06:19:00,63.7,59.5,29.65,NE,50,5.4,8.1,86,0.00,,-RA,0.00,VWS V14.01,2013-11-01 10:19:00,
2013-11-01 06:24:00,63.7,59.7,29.65,East,87,5.4,8.1,87,0.00,,-RA,0.00,VWS V14.01,2013-11-01 10:24:00,
2013-11-01 06:29:00,63.9,59.7,29.65,ESE,116,0.0,8.1,86,0.00,,-RA,0.00,VWS V14.01,2013-11-01 10:29:00,
2013-11-01 06:34:00,63.9,59.7,29.65,SSE,149,0.0,8.1,86,0.00,,-RA,0.00,VWS V14.01,2013-11-01 10:34:00,
2013-11-01 06:39:00,64.0,59.8,29.65,ESE,105,5.4,10.7,86,0.00,,-RA,0.00,VWS V14.01,2013-11-01 10:39:00,
2013-11-01 06:44:00,64.0,59.6,29.65,South,179,5.4,12.5,86,0.00,,-RA,0.00,VWS V14.01,2013-11-01 10:44:00,
2013-11-01 06:49:00,64.2,59.8,29.65,SSW,210,5.4,16.1,86,0.00,,-RA,0.00,VWS V14.01,2013-11-01 10:49:00,
2013-11-01 06:54:00,64.2,59.6,29.65,ENE,73,7.2,8.1,85,0.00,,-RA,0.00,VWS V14.01,2013-11-01 10:54:00,
2013-11-01 06:59:00,64.2,59.3,29.65,WNW,294,0.0,12.5,84,0.00,,-RA,0.00,VWS V14.01,2013-11-01 10:59:00,
2013-11-01 07:04:00,64.4,59.5,29.62,NE,47,0.0,12.5,84,0.00,,BKN030,0.00,VWS V14.01,2013-11-01 11:04:00,
2013-11-01 07:09:00,64.4,59.3,29.62,ENE,61,4.5,8.1,83,0.00,,BKN030,0.00,VWS V14.01,2013-11-01 11:09:00,
2013-11-01 07:14:00,64.2,58.9,29.62,South,189,12.5,12.5,83,0.00,,BKN030,0.00,VWS V14.01,2013-11-01 11:14:00,
2013-11-01 07:19:00,64.4,58.8,29.62,SSW,209,9.8,10.7,82,0.00,,BKN030,0.00,VWS V14.01,2013-11-01 11:19:00,
2013-11-01 07:24:00,64.4,58.6,29.62,ENE,63,5.4,10.7,81,0.00,,BKN030,0.00,VWS V14.01,2013-11-01 11:24:00,
2013-11-01 07:29:00,64.4,58.4,29.62,NE,44,5.4,19.2,81,0.00,,BKN030,0.00,VWS V14.01,2013-11-01 11:29:00,
2013-11-01 07:34:00,64.6,58.3,29.65,SE,125,6.3,8.1,80,0.00,,BKN030,0.00,VWS V14.01,2013-11-01 11:34:00,
2013-11-01 07:39:00,64.6,58.1,29.65,ENE,76,6.3,15.2,79,0.00,,BKN030,0.00,VWS V14.01,2013-11-01 11:39:00,
2013-11-01 07:44:00,64.8,58.0,29.65,East,101,7.2,10.7,79,0.00,,BKN030,0.00,VWS V14.01,2013-11-01 11:44:00,
2013-11-01 07:49:00,64.8,58.0,29.65,ENE,58,4.5,12.5,79,0.00,,BKN030,0.00,VWS V14.01,2013-11-01 11:49:00,
2013-11-01 07:54:00,64.8,58.0,29.65,ENE,69,8.1,12.5,79,0.00,,BKN030,0.00,VWS V14.01,2013-11-01 11:54:00,
2013-11-01 07:59:00,64.8,58.2,29.65,SW,236,12.5,12.5,79,0.00,,BKN030,0.00,VWS V14.01,2013-11-01 11:59:00,
2013-11-01 08:04:00,64.8,58.2,29.65,SSW,196,0.0,9.8,79,0.00,,BKN036,0.00,VWS V14.01,2013-11-01 12:04:00,
2013-11-01 08:09:00,64.8,58.2,29.65,SSE,160,4.5,10.7,79,0.00,,BKN036,0.00,VWS V14.01,2013-11-01 12:09:00,
2013-11-01 08:14:00,64.8,58.5,29.65,ESE,109,7.2,7.2,80,0.00,,BKN036,0.00,VWS V14.01,2013-11-01 12:14:00,
2013-11-01 08:19:00,64.8,58.5,29.62,SE,133,8.1,9.8,80,0.00,,BKN036,0.00,VWS V14.01,2013-11-01 12:19:00,
2013-11-01 08:24:00,64.9,58.4,29.62,East,97,0.0,9.8,79,0.00,,BKN036,0.00,VWS V14.01,2013-11-01 12:24:00,
2013-11-01 08:29:00,64.9,58.2,29.62,SSE,147,7.2,13.4,79,0.00,,BKN036,0.00,VWS V14.01,2013-11-01 12:29:00,
2013-11-01 08:34:00,64.9,58.4,29.65,SE,139,7.2,8.1,79,0.00,,BKN036,0.00,VWS V14.01,2013-11-01 12:34:00,
2013-11-01 08:39:00,64.8,58.7,29.65,SW,218,6.3,8.1,81,0.00,,BKN036,0.00,VWS V14.01,2013-11-01 12:39:00,
2013-11-01 08:44:00,64.4,58.8,29.65,East,79,0.0,11.6,82,0.00,,BKN036,0.00,VWS V14.01,2013-11-01 12:44:00,
2013-11-01 08:49:00,64.4,59.3,29.62,NNE,17,7.2,12.5,83,0.00,,BKN036,0.00,VWS V14.01,2013-11-01 12:49:00,
2013-11-01 08:54:00,64.4,59.5,29.62,SW,222,4.5,11.6,84,0.00,,BKN036,0.00,VWS V14.01,2013-11-01 12:54:00,
2013-11-01 08:59:00,64.2,59.8,29.62,SSE,162,5.4,16.1,86,0.00,,BKN036,0.00,VWS V14.01,2013-11-01 12:59:00,
2013-11-01 09:04:00,64.2,60.0,29.62,WSW,246,6.3,12.5,86,0.00,,BKN034,0.00,VWS V14.01,2013-11-01 13:04:00,
2013-11-01 09:09:00,64.2,60.2,29.62,NE,38,0.0,11.6,87,0.00,,BKN034,0.00,VWS V14.01,2013-11-01 13:09:00,
2013-11-01 09:14:00,64.2,60.2,29.62,South,169,8.1,8.1,87,0.00,,BKN034,0.00,VWS V14.01,2013-11-01 13:14:00,
2013-11-01 09:19:00,64.2,60.0,29.62,SE,138,6.3,8.9,86,0.00,,BKN034,0.00,VWS V14.01,2013-11-01 13:19:00,
2013-11-01 09:24:00,64.4,60.0,29.62,SSE,162,7.2,8.1,86,0.00,,BKN034,0.00,VWS V14.01,2013-11-01 13:24:00,
2013-11-01 09:29:00,64.4,60.0,29.62,ENE,64,6.3,11.6,86,0.00,,BKN034,0.00,VWS V14.01,2013-11-01 13:29:00,
2013-11-01 09:34:00,64.4,59.8,29.62,North,5,0.0,8.1,85,0.00,,BKN034,0.00,VWS V14.01,2013-11-01 13:34:00,
2013-11-01 09:39:00,64.4,59.8,29.62,NE,54,4.5,11.6,85,0.00,,BKN034,0.00,VWS V14.01,2013-11-01 13:39:00,
2013-11-01 09:44:00,64.4,59.8,29.62,NE,55,8.1,8.1,85,0.00,,BKN034,0.00,VWS V14.01,2013-11-01 13:44:00,
2013-11-01 09:49:00,64.4,59.5,29.62,ESE,120,5.4,8.1,84,0.00,,BKN034,0.00,VWS V14.01,2013-11-01 13:49:00,
2013-11-01 09:54:00,64.4,59.3,29.62,NE,56,4.5,11.6,83,0.00,,BKN034,0.00,VWS V14.01,2013-11-01 13:54:00,
2013-11-01 09:59:00,64.4,59.8,29.62,WSW,255,6.3,17.4,85,0.00,,BKN034,0.00,VWS V14.01,2013-11-01 13:59:00,
2013-11-01 10:04:00,64.4,60.2,29.62,SE,128,5.4,11.6,86,0.04,,CLR,0.04,VWS V14.01,2013-11-01 14:04:00,
2013-11-01 10:09:00,64.2,60.2,29.62,NNE,29,0.0,10.7,87,0.04,,CLR,0.04,VWS V14.01,2013-11-01 14:09:00,
2013-11-01 10:14:00,64.0,60.3,29.62,SSW,197,8.1,11.6,88,0.04,,CLR,0.04,VWS V14.01,2013-11-01 14:14:00,
2013-11-01 10:19:00,64.0,60.5,29.59,NE,47,4.5,11.6,88,0.04,,CLR,0.04,VWS V14.01,2013-11-01 14:19:00,
2013-11-01 10:24:00,63.9,60.5,29.59,ENE,74,5.4,11.6,89,0.04,,CLR,0.04,VWS V14.01,2013-11-01 14:24:00,
2013-11-01 10:29:00,63.9,60.5,29.59,East,98,0.0,8.1,89,0.04,,CLR,0.04,VWS V14.01,2013-11-01 14:29:00,
2013-11-01 10:34:00,63.9,60.3,29.59,South,181,12.5,16.1,88,0.04,,CLR,0.04,VWS V14.01,2013-11-01 14:34:00,
2013-11-01 10:39:00,63.9,60.3,29.59,SSW,210,10.7,10.7,88,0.04,,CLR,0.04,VWS V14.01,2013-11-01 14:39:00,
2013-11-01 10:44:00,63.9,60.1,29.59,SW,214,6.3,11.6,88,0.04,,CLR,0.04,VWS V14.01,2013-11-01 14:44:00,
2013-11-01 10:49:00,64.0,59.8,29.59,East,89,4.5,9.8,86,0.04,,CLR,0.04,VWS V14.01,2013-11-01 14:49:00,
2013-11-01 10:54:00,64.2,59.8,29.59,WNW,291,6.3,9.8,86,0.04,,CLR,0.04,VWS V14.01,2013-11-01 14:54:00,
2013-11-01 10:59:00,64.2,59.8,29.59,ENE,62,0.0,12.5,86,0.04,,CLR,0.04,VWS V14.01,2013-11-01 14:59:00,
2013-11-01 11:04:00,64.4,59.8,29.59,East,94,7.2,11.6,85,0.04,,CLR,0.04,VWS V14.01,2013-11-01 15:04:00,
2013-11-01 11:09:00,64.2,60.0,29.59,West,270,0.0,12.5,86,0.00,,CLR,0.04,VWS V14.01,2013-11-01 15:09:00,
2013-11-01 11:14:00,64.0,60.5,29.59,NE,41,4.5,11.6,88,0.00,,CLR,0.04,VWS V14.01,2013-11-01 15:14:00,
2013-11-01 11:19:00,63.9,60.7,29.62,NE,43,7.2,10.7,90,0.00,,CLR,0.04,VWS V14.01,2013-11-01 15:19:00,
2013-11-01 11:24:00,63.7,60.3,29.62,NE,46,0.0,8.1,89,0.00,,CLR,0.04,VWS V14.01,2013-11-01 15:24:00,
2013-11-01 11:29:00,63.3,59.6,29.62,NNE,24,5.4,6.3,88,0.00,,CLR,0.04,VWS V14.01,2013-11-01 15:29:00,
2013-11-01 11:34:00,63.0,59.0,29.62,East,82,0.0,11.6,87,0.00,,CLR,0.04,VWS V14.01,2013-11-01 15:34:00,
2013-11-01 11:39:00,62.8,58.8,29.62,East,91,0.0,8.1,87,0.00,,CLR,0.04,VWS V14.01,2013-11-01 15:39:00,
2013-11-01 11:44:00,62.6,58.4,29.62,East,83,0.0,5.4,86,0.00,,CLR,0.04,VWS V14.01,2013-11-01 15:44:00,
2013-11-01 11:49:00,62.4,58.2,29.62,East,83,0.0,0.0,86,0.00,,CLR,0.04,VWS V14.01,2013-11-01 15:49:00,
2013-11-01 11:54:00,62.1,57.7,29.62,ESE,102,0.0,9.8,86,0.00,,CLR,0.04,VWS V14.01,2013-11-01 15:54:00,
2013-11-01 11:59:00,62.1,57.5,29.62,SSE,160,0.0,7.2,85,0.00,,CLR,0.04,VWS V14.01,2013-11-01 15:59:00,
2013-11-01 12:04:00,61.9,57.3,29.62,East,85,5.4,8.1,85,0.00,,FEW039,0.04,VWS V14.01,2013-11-01 16:04:00,
2013-11-01 12:09:00,61.9,57.0,29.62,East,82,0.0,4.5,84,0.00,,FEW039,0.04,VWS V14.01,2013-11-01 16:09:00,
2013-11-01 12:14:00,61.9,56.8,29.62,East,82,0.0,0.0,83,0.00,,FEW039,0.04,VWS V14.01,2013-11-01 16:14:00,
2013-11-01 12:19:00,61.9,56.8,29.62,East,82,0.0,0.0,83,0.00,,FEW039,0.04,VWS V14.01,2013-11-01 16:19:00,
2013-11-01 12:24:00,61.7,55.3,29.62,East,82,0.0,6.3,79,0.00,,FEW039,0.04,VWS V14.01,2013-11-01 16:24:00,
2013-11-01 12:29:00,61.9,55.5,29.62,East,82,0.0,5.4,79,0.00,,FEW039,0.04,VWS V14.01,2013-11-01 16:29:00,
2013-11-01 12:34:00,61.9,54.3,29.62,WSW,238,0.0,8.1,76,0.00,,FEW039,0.04,VWS V14.01,2013-11-01 16:34:00,
2013-11-01 12:39:00,62.2,54.1,29.62,NNE,23,0.0,7.2,75,0.00,,FEW039,0.04,VWS V14.01,2013-11-01 16:39:00,
2013-11-01 12:44:00,62.6,54.0,29.62,ENE,62,8.9,8.9,73,0.00,,FEW039,0.04,VWS V14.01,2013-11-01 16:44:00,
2013-11-01 12:49:00,63.0,54.0,29.59,SSE,147,0.0,8.1,73,0.00,,FEW039,0.04,VWS V14.01,2013-11-01 16:49:00,
2013-11-01 12:54:00,63.0,54.0,29.59,ESE,118,0.0,7.2,73,0.00,,FEW039,0.04,VWS V14.01,2013-11-01 16:54:00,
2013-11-01 12:59:00,63.0,53.8,29.59,SSW,211,0.0,10.7,72,0.00,,FEW039,0.04,VWS V14.01,2013-11-01 16:59:00,
2013-11-01 13:04:00,63.1,53.7,29.59,East,96,0.0,8.1,71,0.00,,,0.04,VWS V14.01,2013-11-01 17:04:00,
2013-11-01 13:09:00,63.3,53.1,29.59,East,93,5.4,14.3,69,0.00,,,0.04,VWS V14.01,2013-11-01 17:09:00,
2013-11-01 13:14:00,63.5,53.5,29.59,ENE,64,4.5,11.6,70,0.00,,,0.04,VWS V14.01,2013-11-01 17:14:00,
2013-11-01 13:19:00,63.3,53.1,29.59,East,92,7.2,8.1,69,0.00,,,0.04,VWS V14.01,2013-11-01 17:19:00,
2013-11-01 13:24:00,63.5,54.3,29.59,NE,53,0.0,10.7,72,0.00,,,0.04,VWS V14.01,2013-11-01 17:24:00,
2013-11-01 13:29:00,63.5,53.3,29.59,East,89,16.1,16.1,69,0.00,,,0.04,VWS V14.01,2013-11-01 17:29:00,
2013-11-01 13:34:00,63.5,53.3,29.56,East,98,0.0,10.7,69,0.00,,,0.04,VWS V14.01,2013-11-01 17:34:00,
2013-11-01 13:39:00,63.5,53.5,29.56,East,97,0.0,7.2,70,0.00,,,0.04,VWS V14.01,2013-11-01 17:39:00,
2013-11-01 13:44:00,63.7,54.0,29.56,ENE,71,0.0,7.2,71,0.00,,,0.04,VWS V14.01,2013-11-01 17:44:00,
2013-11-01 13:49:00,63.9,54.1,29.56,ESE,105,0.0,10.7,71,0.00,,,0.04,VWS V14.01,2013-11-01 17:49:00,
2013-11-01 13:54:00,63.9,53.9,29.56,East,80,0.0,11.6,70,0.00,,,0.04,VWS V14.01,2013-11-01 17:54:00,
2013-11-01 13:59:00,64.0,54.0,29.56,East,80,0.0,6.3,70,0.00,,,0.04,VWS V14.01,2013-11-01 17:59:00,
2013-11-01 14:04:00,64.2,54.0,29.56,ENE,68,0.0,8.1,69,0.00,,SCT037,0.04,VWS V14.01,2013-11-01 18:04:00,
2013-11-01 14:09:00,64.2,53.7,29.56,ESE,118,5.4,7.2,69,0.00,,SCT037,0.04,VWS V14.01,2013-11-01 18:09:00,
2013-11-01 14:14:00,64.4,53.9,29.56,ESE,113,9.8,9.8,69,0.00,,SCT037,0.04,VWS V14.01,2013-11-01 18:14:00,
2013-11-01 14:19:00,64.8,53.9,29.56,East,98,0.0,9.8,68,0.00,,SCT037,0.04,VWS V14.01,2013-11-01 18:19:00,
2013-11-01 14:24:00,64.9,53.8,29.56,SW,219,0.0,11.6,67,0.00,,SCT037,0.04,VWS V14.01,2013-11-01 18:24:00,
2013-11-01 14:29:00,65.3,53.9,29.56,South,188,6.3,10.7,67,0.00,,SCT037,0.04,VWS V14.01,2013-11-01 18:29:00,
2013-11-01 14:34:00,65.3,53.9,29.56,SE,143,7.2,8.1,67,0.00,,SCT037,0.04,VWS V14.01,2013-11-01 18:34:00,
2013-11-01 14:39:00,65.1,53.7,29.56,SE,127,7.2,7.2,67,0.00,,SCT037,0.04,VWS V14.01,2013-11-01 18:39:00,
2013-11-01 14:44:00,64.9,53.6,29.56,East,87,0.0,12.5,67,0.00,,SCT037,0.04,VWS V14.01,2013-11-01 18:44:00,
2013-11-01 14:49:00,65.1,53.7,29.56,SE,140,0.0,8.9,67,0.00,,SCT037,0.04,VWS V14.01,2013-11-01 18:49:00,
2013-11-01 14:54:00,64.9,53.6,29.56,ENE,71,0.0,7.2,67,0.00,,SCT037,0.04,VWS V14.01,2013-11-01 18:54:00,
2013-11-01 14:59:00,64.9,53.6,29.56,ENE,76,0.0,9.8,67,0.00,,SCT037,0.04,VWS V14.01,2013-11-01 18:59:00,
2013-11-01 15:04:00,65.1,53.7,29.56,East,90,0.0,9.8,67,0.00,,BKN033,0.04,VWS V14.01,2013-11-01 19:04:00,
2013-11-01 15:09:00,65.1,53.7,29.56,East,99,0.0,9.8,67,0.00,,BKN033,0.04,VWS V14.01,2013-11-01 19:09:00,
2013-11-01 15:14:00,65.1,53.7,29.56,East,99,0.0,8.1,67,0.00,,BKN033,0.04,VWS V14.01,2013-11-01 19:14:00,
2013-11-01 15:19:00,64.8,53.4,29.56,SE,140,6.3,11.6,67,0.00,,BKN033,0.04,VWS V14.01,2013-11-01 19:19:00,
2013-11-01 15:24:00,64.6,53.2,29.56,NE,56,0.0,5.4,67,0.00,,BKN033,0.04,VWS V14.01,2013-11-01 19:24:00,
2013-11-01 15:29:00,64.8,53.4,29.56,NE,56,0.0,0.0,67,0.00,,BKN033,0.04,VWS V14.01,2013-11-01 19:29:00,
2013-11-01 15:34:00,64.8,53.4,29.56,NE,35,6.3,9.8,67,0.00,,BKN033,0.04,VWS V14.01,2013-11-01 19:34:00,
2013-11-01 15:39:00,64.9,53.6,29.56,SSW,201,5.4,7.2,67,0.00,,BKN033,0.04,VWS V14.01,2013-11-01 19:39:00,
2013-11-01 15:44:00,65.1,53.5,29.56,SSE,147,0.0,12.5,66,0.00,,BKN033,0.04,VWS V14.01,2013-11-01 19:44:00,
2013-11-01 15:49:00,64.9,53.6,29.56,ENE,57,4.5,6.3,67,0.00,,BKN033,0.04,VWS V14.01,2013-11-01 19:49:00,
2013-11-01 15:54:00,64.4,53.0,29.56,SE,137,0.0,9.8,67,0.00,,BKN033,0.04,VWS V14.01,2013-11-01 19:54:00,
2013-11-01 15:59:00,64.2,53.2,29.56,East,82,0.0,6.3,67,0.00,,BKN033,0.04,VWS V14.01,2013-11-01 19:59:00,
2013-11-01 16:04:00,64.2,52.9,29.56,SW,226,7.2,10.7,67,0.00,,OVC031,0.04,VWS V14.01,2013-11-01 20:04:00,
2013-11-01 16:09:00,64.4,53.3,29.56,ENE,76,4.5,8.1,67,0.00,,OVC031,0.04,VWS V14.01,2013-11-01 20:09:00,
2013-11-01 16:14:00,64.4,53.0,29.56,WSW,247,0.0,11.6,67,0.00,,OVC031,0.04,VWS V14.01,2013-11-01 20:14:00,
2013-11-01 16:19:00,64.2,53.2,29.56,NE,48,7.2,7.2,67,0.00,,OVC031,0.04,VWS V14.01,2013-11-01 20:19:00,
2013-11-01 16:24:00,63.7,52.6,29.56,NE,48,0.0,0.0,67,0.00,,OVC031,0.04,VWS V14.01,2013-11-01 20:24:00,
2013-11-01 16:29:00,63.5,52.7,29.56,ESE,105,6.3,7.2,68,0.00,,OVC031,0.04,VWS V14.01,2013-11-01 20:29:00,
2013-11-01 16:34:00,63.5,53.0,29.56,ENE,60,0.0,0.0,69,0.00,,OVC031,0.04,VWS V14.01,2013-11-01 20:34:00,
2013-11-01 16:39:00,63.1,52.9,29.56,ENE,64,0.0,8.1,69,0.00,,OVC031,0.04,VWS V14.01,2013-11-01 20:39:00,
2013-11-01 16:44:00,63.0,52.5,29.56,ENE,64,0.0,0.0,69,0.00,,OVC031,0.04,VWS V14.01,2013-11-01 20:44:00,
2013-11-01 16:49:00,62.6,52.4,29.56,ENE,64,0.0,0.0,69,0.00,,OVC031,0.04,VWS V14.01,2013-11-01 20:49:00,
2013-11-01 16:54:00,62.4,52.8,29.56,SW,217,0.0,0.0,71,0.00,,OVC031,0.04,VWS V14.01,2013-11-01 20:54:00,
2013-11-01 16:58:00,62.2,52.8,29.56,SE,143,4.5,8.1,71,0.00,,OVC031,0.04,VWS V14.01,2013-11-01 20:58:00,
2013-11-01 17:03:00,61.9,52.8,29.56,ESE,120,0.0,6.3,72,0.00,,OVC041,0.04,VWS V14.01,2013-11-01 21:03:00,
2013-11-01 17:08:00,61.7,52.8,29.56,ESE,120,0.0,0.0,73,0.00,,OVC041,0.04,VWS V14.01,2013-11-01 21:08:00,
2013-11-01 17:13:00,61.3,52.8,29.56,ESE,110,0.0,5.4,73,0.00,,OVC041,0.04,VWS V14.01,2013-11-01 21:13:00,
2013-11-01 17:18:00,61.3,52.8,29.56,ESE,110,0.0,0.0,73,0.00,,OVC041,0.04,VWS V14.01,2013-11-01 21:18:00,
2013-11-01 17:23:00,61.0,52.4,29.56,ESE,110,4.5,5.4,73,0.00,,OVC041,0.04,VWS V14.01,2013-11-01 21:23:00,
2013-11-01 17:28:00,61.0,52.7,29.56,East,81,0.0,5.4,74,0.00,,OVC041,0.04,VWS V14.01,2013-11-01 21:28:00,
2013-11-01 17:33:00,61.0,52.7,29.56,ESE,109,0.0,0.0,74,0.00,,OVC041,0.04,VWS V14.01,2013-11-01 21:33:00,
2013-11-01 17:38:00,61.0,52.7,29.56,ESE,109,0.0,0.0,74,0.00,,OVC041,0.04,VWS V14.01,2013-11-01 21:38:00,
2013-11-01 17:43:00,61.2,52.8,29.56,East,82,4.5,10.7,74,0.00,,OVC041,0.04,VWS V14.01,2013-11-01 21:43:00,
2013-11-01 17:48:00,61.2,52.6,29.59,SSW,212,5.4,5.4,73,0.00,,OVC041,0.04,VWS V14.01,2013-11-01 21:48:00,
2013-11-01 17:53:00,61.0,52.4,29.59,SSW,212,0.0,0.0,73,0.00,,OVC041,0.04,VWS V14.01,2013-11-01 21:53:00,
2013-11-01 17:58:00,60.6,52.5,29.59,WSW,238,0.0,7.2,75,0.00,,OVC041,0.04,VWS V14.01,2013-11-01 21:58:00,
2013-11-01 18:03:00,60.4,52.4,29.59,WSW,238,0.0,0.0,75,0.00,,OVC042,0.04,VWS V14.01,2013-11-01 22:03:00,
2013-11-01 18:08:00,60.3,52.5,29.59,East,83,5.4,6.3,75,0.00,,OVC042,0.04,VWS V14.01,2013-11-01 22:08:00,
2013-11-01 18:13:00,60.1,52.5,29.59,ENE,76,0.0,6.3,76,0.00,,OVC042,0.04,VWS V14.01,2013-11-01 22:13:00,
2013-11-01 18:18:00,60.1,52.8,29.59,ESE,121,0.0,4.5,77,0.00,,OVC042,0.04,VWS V14.01,2013-11-01 22:18:00,
2013-11-01 18:23:00,59.9,52.6,29.59,East,101,0.0,0.0,77,0.00,,OVC042,0.04,VWS V14.01,2013-11-01 22:23:00,
2013-11-01 18:28:00,59.9,52.8,29.59,ENE,65,0.0,7.2,77,0.00,,OVC042,0.04,VWS V14.01,2013-11-01 22:28:00,
2013-11-01 18:33:00,59.7,52.7,29.59,SW,223,0.0,6.3,77,0.00,,OVC042,0.04,VWS V14.01,2013-11-01 22:33:00,
2013-11-01 18:38:00,59.7,52.9,29.59,SW,223,0.0,0.0,78,0.00,,OVC042,0.04,VWS V14.01,2013-11-01 22:38:00,
2013-11-01 18:43:00,59.9,53.1,29.59,ENE,70,6.3,6.3,78,0.00,,OVC042,0.04,VWS V14.01,2013-11-01 22:43:00,
2013-11-01 18:48:00,59.9,53.1,29.62,West,264,0.0,8.1,78,0.00,,OVC042,0.04,VWS V14.01,2013-11-01 22:48:00,
2013-11-01 18:53:00,59.7,52.7,29.62,West,264,5.4,5.4,77,0.00,,OVC042,0.04,VWS V14.01,2013-11-01 22:53:00,
2013-11-01 18:58:00,59.7,52.9,29.62,South,186,0.0,6.3,78,0.00,,OVC042,0.04,VWS V14.01,2013-11-01 22:58:00,
2013-11-01 19:03:00,59.7,52.9,29.62,East,81,0.0,6.3,78,0.00,,OVC045,0.04,VWS V14.01,2013-11-01 23:03:00,
2013-11-01 19:08:00,59.4,52.5,29.62,East,81,0.0,0.0,78,0.00,,OVC045,0.04,VWS V14.01,2013-11-01 23:08:00,
2013-11-01 19:13:00,59.0,52.2,29.62,East,81,0.0,0.0,78,0.00,,OVC045,0.04,VWS V14.01,2013-11-01 23:13:00,
2013-11-01 19:18:00,58.6,52.1,29.62,East,81,0.0,0.0,79,0.00,,OVC045,0.04,VWS V14.01,2013-11-01 23:18:00,
2013-11-01 19:23:00,58.3,52.0,29.62,East,81,0.0,0.0,79,0.00,,OVC045,0.04,VWS V14.01,2013-11-01 23:23:00,
2013-11-01 19:28:00,58.1,52.5,29.62,East,81,6.3,6.3,81,0.00,,OVC045,0.04,VWS V14.01,2013-11-01 23:28:00,
2013-11-01 19:33:00,58.1,52.7,29.65,ENE,70,0.0,0.0,82,0.00,,OVC045,0.04,VWS V14.01,2013-11-01 23:33:00,
2013-11-01 19:38:00,58.1,52.7,29.65,ENE,70,0.0,0.0,82,0.00,,OVC045,0.04,VWS V14.01,2013-11-01 23:38:00,
2013-11-01 19:43:00,57.9,52.7,29.65,East,84,0.0,8.1,83,0.00,,OVC045,0.04,VWS V14.01,2013-11-01 23:43:00,
2013-11-01 19:48:00,57.7,52.8,29.62,East,84,4.5,5.4,83,0.00,,OVC045,0.04,VWS V14.01,2013-11-01 23:48:00,
2013-11-01 19:53:00,57.6,52.6,29.62,East,84,0.0,0.0,83,0.00,,OVC045,0.04,VWS V14.01,2013-11-01 23:53:00,
2013-11-01 19:58:00,57.4,52.7,29.62,East,84,0.0,0.0,84,0.00,,OVC045,0.04,VWS V14.01,2013-11-01 23:58:00,
2013-11-01 20:03:00,57.2,52.5,29.62,East,84,0.0,0.0,84,0.00,,OVC045,0.04,VWS V14.01,2013-11-02 00:03:00,
2013-11-01 20:08:00,57.0,52.9,29.62,East,84,0.0,0.0,86,0.00,,OVC045,0.04,VWS V14.01,2013-11-02 00:08:00,
2013-11-01 20:13:00,57.0,52.9,29.62,East,84,0.0,0.0,86,0.00,,OVC045,0.04,VWS V14.01,2013-11-02 00:13:00,
2013-11-01 20:18:00,56.8,53.0,29.65,East,84,0.0,0.0,87,0.00,,OVC045,0.04,VWS V14.01,2013-11-02 00:18:00,
2013-11-01 20:23:00,56.8,53.2,29.65,East,84,0.0,0.0,88,0.00,,OVC045,0.04,VWS V14.01,2013-11-02 00:23:00,
2013-11-01 20:28:00,56.7,53.0,29.65,East,84,0.0,0.0,88,0.00,,OVC045,0.04,VWS V14.01,2013-11-02 00:28:00,
2013-11-01 20:33:00,56.7,53.2,29.65,East,84,0.0,0.0,88,0.00,,OVC045,0.04,VWS V14.01,2013-11-02 00:33:00,
2013-11-01 20:38:00,56.5,53.0,29.65,East,84,0.0,0.0,88,0.00,,OVC045,0.04,VWS V14.01,2013-11-02 00:38:00,
2013-11-01 20:43:00,56.5,53.2,29.65,East,84,0.0,0.0,89,0.00,,OVC045,0.04,VWS V14.01,2013-11-02 00:43:00,
2013-11-01 20:59:00,56.3,53.7,29.65,ENE,70,0.0,0.0,91,0.00,,OVC045,0.04,VWS V14.01,2013-11-02 00:59:00,
2013-11-01 21:04:00,56.5,53.9,29.65,ENE,70,0.0,0.0,91,0.00,,OVC055,0.04,VWS V14.01,2013-11-02 01:04:00,
2013-11-01 21:09:00,56.5,53.9,29.65,ENE,70,0.0,0.0,91,0.00,,OVC055,0.04,VWS V14.01,2013-11-02 01:09:00,
2013-11-01 21:14:00,56.5,54.1,29.65,ENE,70,0.0,0.0,92,0.00,,OVC055,0.04,VWS V14.01,2013-11-02 01:14:00,
2013-11-01 21:19:00,56.3,53.9,29.65,ENE,70,0.0,0.0,92,0.00,,OVC055,0.04,VWS V14.01,2013-11-02 01:19:00,
2013-11-01 21:24:00,56.3,53.9,29.65,ENE,70,0.0,0.0,92,0.00,,OVC055,0.04,VWS V14.01,2013-11-02 01:24:00,
2013-11-01 21:29:00,56.3,53.7,29.65,ENE,70,0.0,0.0,91,0.00,,OVC055,0.04,VWS V14.01,2013-11-02 01:29:00,
2013-11-01 21:34:00,56.1,53.5,29.65,ENE,70,0.0,0.0,91,0.00,,OVC055,0.04,VWS V14.01,2013-11-02 01:34:00,
2013-11-01 21:39:00,55.9,53.3,29.65,ENE,70,0.0,0.0,91,0.00,,OVC055,0.04,VWS V14.01,2013-11-02 01:39:00,
2013-11-01 21:44:00,55.8,53.2,29.65,ENE,70,0.0,0.0,91,0.00,,OVC055,0.04,VWS V14.01,2013-11-02 01:44:00,
2013-11-01 21:49:00,55.6,53.0,29.68,ENE,70,0.0,0.0,91,0.00,,OVC055,0.04,VWS V14.01,2013-11-02 01:49:00,
2013-11-01 21:54:00,55.6,53.0,29.68,ENE,70,0.0,0.0,91,0.00,,OVC055,0.04,VWS V14.01,2013-11-02 01:54:00,
2013-11-01 21:59:00,55.4,53.0,29.68,ENE,70,0.0,0.0,92,0.00,,OVC055,0.04,VWS V14.01,2013-11-02 01:59:00,
2013-11-01 22:04:00,55.4,53.0,29.68,ENE,70,0.0,0.0,92,0.00,,OVC060,0.04,VWS V14.01,2013-11-02 02:04:00,
2013-11-01 22:09:00,55.4,53.2,29.68,ENE,70,0.0,0.0,92,0.00,,OVC060,0.04,VWS V14.01,2013-11-02 02:09:00,
2013-11-01 22:14:00,55.4,53.2,29.68,ENE,70,0.0,0.0,92,0.00,,OVC060,0.04,VWS V14.01,2013-11-02 02:14:00,
2013-11-01 22:19:00,55.2,53.2,29.68,ENE,70,0.0,0.0,93,0.00,,OVC060,0.04,VWS V14.01,2013-11-02 02:19:00,
2013-11-01 22:24:00,55.2,53.2,29.68,ENE,70,0.0,0.0,93,0.00,,OVC060,0.04,VWS V14.01,2013-11-02 02:24:00,
2013-11-01 22:29:00,55.0,53.0,29.68,ENE,70,0.0,0.0,93,0.00,,OVC060,0.04,VWS V14.01,2013-11-02 02:29:00,
2013-11-01 22:34:00,54.9,53.1,29.68,ENE,70,0.0,0.0,94,0.00,,OVC060,0.04,VWS V14.01,2013-11-02 02:34:00,
2013-11-01 22:39:00,54.9,53.1,29.68,ENE,70,0.0,0.0,94,0.00,,OVC060,0.04,VWS V14.01,2013-11-02 02:39:00,
2013-11-01 22:44:00,54.9,53.1,29.68,ENE,70,0.0,0.0,94,0.00,,OVC060,0.04,VWS V14.01,2013-11-02 02:44:00,
2013-11-01 22:49:00,54.7,53.1,29.68,ENE,70,0.0,0.0,94,0.00,,OVC060,0.04,VWS V14.01,2013-11-02 02:49:00,
2013-11-01 22:54:00,54.5,52.9,29.68,ENE,70,0.0,0.0,94,0.00,,OVC060,0.04,VWS V14.01,2013-11-02 02:54:00,
2013-11-01 22:59:00,54.5,53.1,29.68,ENE,70,0.0,0.0,95,0.00,,OVC060,0.04,VWS V14.01,2013-11-02 02:59:00,
2013-11-01 23:04:00,54.3,52.9,29.68,ENE,70,0.0,0.0,95,0.00,,OVC065,0.04,VWS V14.01,2013-11-02 03:04:00,
2013-11-01 23:09:00,54.1,52.7,29.68,ENE,70,0.0,0.0,95,0.00,,OVC065,0.04,VWS V14.01,2013-11-02 03:09:00,
2013-11-01 23:14:00,54.1,52.9,29.68,ENE,70,0.0,0.0,96,0.00,,OVC065,0.04,VWS V14.01,2013-11-02 03:14:00,
2013-11-01 23:19:00,54.1,52.9,29.71,ENE,70,0.0,0.0,96,0.00,,OVC065,0.04,VWS V14.01,2013-11-02 03:19:00,
2013-11-01 23:24:00,54.0,52.8,29.71,ENE,70,0.0,0.0,96,0.00,,OVC065,0.04,VWS V14.01,2013-11-02 03:24:00,
2013-11-01 23:29:00,54.0,52.8,29.71,ENE,70,0.0,0.0,96,0.00,,OVC065,0.04,VWS V14.01,2013-11-02 03:29:00,
2013-11-01 23:34:00,53.8,52.6,29.71,ENE,70,0.0,0.0,96,0.00,,OVC065,0.04,VWS V14.01,2013-11-02 03:34:00,
2013-11-01 23:39:00,54.0,52.9,29.71,ENE,70,0.0,0.0,96,0.00,,OVC065,0.04,VWS V14.01,2013-11-02 03:39:00,
2013-11-01 23:44:00,54.0,52.9,29.71,ENE,70,0.0,0.0,96,0.00,,OVC065,0.04,VWS V14.01,2013-11-02 03:44:00,
2013-11-01 23:49:00,54.0,53.1,29.68,ENE,70,0.0,0.0,97,0.00,,OVC065,0.04,VWS V14.01,2013-11-02 03:49:00,
2013-11-01 23:54:00,54.1,53.5,29.68,ENE,70,0.0,0.0,98,0.00,,OVC065,0.04,VWS V14.01,2013-11-02 03:54:00,
2013-11-01 23:59:00,54.1,53.5,29.68,ENE,70,0.0,0.0,98,0.00,,OVC065,0.04,VWS V14.01,2013-11-02 03:59:00,